createdAt,value
2022-09-28T00:01:17.835Z,100.00
2022-09-28T00:03:47.229Z,100.00
2022-09-28T00:06:18.606Z,100.00
2022-09-28T00:08:46.530Z,100.00
2022-09-28T00:11:15.875Z,100.00
2022-09-28T00:13:46.058Z,100.00
2022-09-28T00:16:19.726Z,100.00
2022-09-28T00:18:47.715Z,100.00
2022-09-28T00:21:18.734Z,100.00
2022-09-28T00:24:05.207Z,100.00
2022-09-28T00:26:34.443Z,100.00
2022-09-28T00:29:03.030Z,100.00
2022-09-28T00:31:33.219Z,100.00
2022-09-28T00:34:02.064Z,100.00
2022-09-28T00:36:32.162Z,100.00
2022-09-28T00:39:03.895Z,100.00
2022-09-28T00:41:31.847Z,100.00
2022-09-28T00:44:24.260Z,100.00
2022-09-28T00:47:20.054Z,100.00
2022-09-28T00:49:54.335Z,100.00
2022-09-28T00:52:35.210Z,100.00
2022-09-28T00:55:06.534Z,100.00
2022-09-28T00:57:35.936Z,100.00
2022-09-28T01:00:04.827Z,100.00
2022-09-28T01:02:32.757Z,100.00
2022-09-28T01:05:04.145Z,100.00
2022-09-28T01:07:33.448Z,100.00
2022-09-28T01:10:01.520Z,100.00
2022-09-28T01:12:30.095Z,100.00
2022-09-28T01:14:58.924Z,100.00
2022-09-28T01:17:38.456Z,100.00
2022-09-28T01:20:42.561Z,100.00
2022-09-28T01:23:25.465Z,100.00
2022-09-28T01:26:34.026Z,100.00
2022-09-28T01:29:31.570Z,100.00
2022-09-28T01:32:16.830Z,100.00
2022-09-28T01:34:56.259Z,100.00
2022-09-28T01:37:32.370Z,100.00
2022-09-28T01:40:05.052Z,100.00
2022-09-28T01:42:38.021Z,100.00
2022-09-28T01:45:13.554Z,100.00
2022-09-28T01:47:43.425Z,100.00
2022-09-28T01:50:15.954Z,100.00
2022-09-28T01:52:56.809Z,100.00
2022-09-28T01:55:34.459Z,100.00
2022-09-28T01:58:22.080Z,100.00
2022-09-28T02:00:59.946Z,100.00
2022-09-28T02:03:37.598Z,100.00
2022-09-28T02:06:16.299Z,100.00
2022-09-28T02:08:57.830Z,100.00
2022-09-28T02:11:37.381Z,100.00
2022-09-28T02:14:10.310Z,100.00
2022-09-28T02:16:46.064Z,100.00
2022-09-28T02:19:21.339Z,100.00
2022-09-28T02:21:58.632Z,100.00
2022-09-28T02:24:40.562Z,100.00
2022-09-28T02:27:18.965Z,100.00
2022-09-28T02:29:47.148Z,100.00
2022-09-28T02:32:15.908Z,100.00
2022-09-28T02:34:44.559Z,100.00
2022-09-28T02:37:13.263Z,100.00
2022-09-28T02:39:41.050Z,100.00
2022-09-28T02:42:23.859Z,100.00
2022-09-28T02:45:25.126Z,100.00
2022-09-28T02:48:49.197Z,100.00
2022-09-28T02:51:46.169Z,100.00
2022-09-28T02:54:24.938Z,100.00
2022-09-28T02:57:07.505Z,100.00
2022-09-28T03:00:10.560Z,100.00
2022-09-28T03:02:42.618Z,100.00
2022-09-28T03:05:22.076Z,100.00
2022-09-28T03:08:06.822Z,100.00
2022-09-28T03:10:41.818Z,100.00
2022-09-28T03:13:11.238Z,100.00
2022-09-28T03:15:40.485Z,100.00
2022-09-28T03:18:08.224Z,100.00
2022-09-28T03:20:36.544Z,100.00
2022-09-28T03:25:53.093Z,100.00
2022-09-28T03:28:21.695Z,100.00
2022-09-28T03:30:50.677Z,100.00
2022-09-28T03:33:19.812Z,100.00
2022-09-28T03:35:52.203Z,100.00
2022-09-28T03:38:20.671Z,100.00
2022-09-28T03:40:59.128Z,100.00
2022-09-28T03:43:30.799Z,100.00
2022-09-28T03:46:01.879Z,100.00
2022-09-28T03:48:35.423Z,100.00
2022-09-28T03:51:05.789Z,100.00
2022-09-28T03:53:35.467Z,100.00
2022-09-28T03:56:07.024Z,100.00
2022-09-28T03:58:35.706Z,100.00
2022-09-28T04:01:17.541Z,100.00
2022-09-28T04:03:48.168Z,100.00
2022-09-28T04:06:16.254Z,100.00
2022-09-28T04:08:43.970Z,100.00
2022-09-28T04:11:12.512Z,100.00
2022-09-28T04:13:41.141Z,100.00
2022-09-28T04:16:12.083Z,100.00
2022-09-28T04:18:43.087Z,100.00
2022-09-28T04:21:45.905Z,100.00
2022-09-28T04:24:15.739Z,100.00
2022-09-28T04:26:43.532Z,100.00
2022-09-28T04:29:16.756Z,100.00
2022-09-28T04:31:56.214Z,100.00
2022-09-28T04:34:37.119Z,100.00
2022-09-28T04:37:06.918Z,100.00
2022-09-28T04:39:34.723Z,100.00
2022-09-28T04:42:02.796Z,100.00
2022-09-28T04:44:30.732Z,100.00
2022-09-28T04:47:06.368Z,100.00
2022-09-28T04:49:37.070Z,100.00
2022-09-28T04:52:28.293Z,100.00
2022-09-28T04:54:56.494Z,100.00
2022-09-28T04:57:25.648Z,100.00
2022-09-28T04:59:53.362Z,100.00
2022-09-28T05:02:21.260Z,100.00
2022-09-28T05:05:14.747Z,100.00
2022-09-28T05:08:11.874Z,100.00
2022-09-28T05:10:41.816Z,100.00
2022-09-28T05:13:11.400Z,100.00
2022-09-28T05:15:40.725Z,100.00
2022-09-28T05:18:09.590Z,100.00
2022-09-28T05:20:46.168Z,100.00
2022-09-28T05:23:15.500Z,100.00
2022-09-28T05:25:45.927Z,100.00
2022-09-28T05:28:29.109Z,100.00
2022-09-28T05:31:29.080Z,100.00
2022-09-28T05:34:13.595Z,100.00
2022-09-28T05:36:42.818Z,100.00
2022-09-28T05:39:10.589Z,100.00
2022-09-28T05:41:38.942Z,100.00
2022-09-28T05:44:06.750Z,100.00
2022-09-28T05:46:35.884Z,100.00
2022-09-28T05:49:03.855Z,100.00
2022-09-28T05:51:32.187Z,100.00
2022-09-28T05:54:04.827Z,100.00
2022-09-28T05:56:33.913Z,100.00
2022-09-28T05:59:06.472Z,100.00
2022-09-28T06:01:34.609Z,100.00
2022-09-28T06:04:03.489Z,100.00
2022-09-28T06:06:32.398Z,100.00
2022-09-28T06:09:00.099Z,100.00
2022-09-28T06:11:32.606Z,100.00
2022-09-28T06:14:05.307Z,100.00
2022-09-28T06:16:35.110Z,100.00
2022-09-28T06:19:02.917Z,100.00
2022-09-28T06:21:44.833Z,100.00
2022-09-28T06:24:12.891Z,100.00
2022-09-28T06:26:41.012Z,100.00
2022-09-28T06:29:09.332Z,100.00
2022-09-28T06:31:37.251Z,99.74
2022-09-28T06:34:05.011Z,99.16
2022-09-28T06:36:33.865Z,99.08
2022-09-28T06:39:01.607Z,97.69
2022-09-28T06:41:30.245Z,96.29
2022-09-28T06:44:03.703Z,96.03
2022-09-28T06:47:09.674Z,95.55
2022-09-28T06:50:16.096Z,94.88
2022-09-28T06:52:55.322Z,95.19
2022-09-28T06:55:50.232Z,95.36
2022-09-28T06:58:20.798Z,95.27
2022-09-28T07:00:52.513Z,95.35
2022-09-28T07:03:24.865Z,95.04
2022-09-28T07:05:58.642Z,95.24
2022-09-28T07:09:10.040Z,93.78
2022-09-28T07:12:00.471Z,92.78
2022-09-28T07:14:47.868Z,92.83
2022-09-28T07:17:17.211Z,90.96
2022-09-28T07:19:45.022Z,91.06
2022-09-28T07:22:18.477Z,90.17
2022-09-28T07:24:48.899Z,88.73
2022-09-28T07:27:39.722Z,86.52
2022-09-28T07:30:35.375Z,85.28
2022-09-28T07:33:17.228Z,84.19
2022-09-28T07:35:55.635Z,83.29
2022-09-28T07:38:28.067Z,83.15
2022-09-28T07:41:14.282Z,81.44
2022-09-28T07:43:49.808Z,79.14
2022-09-28T07:46:18.043Z,78.17
2022-09-28T07:48:55.940Z,75.27
2022-09-28T07:51:35.844Z,71.90
2022-09-28T07:54:18.931Z,69.24
2022-09-28T07:57:12.937Z,64.16
2022-09-28T08:00:15.046Z,58.66
2022-09-28T08:02:45.078Z,57.17
2022-09-28T08:05:17.557Z,55.68
2022-09-28T08:07:45.526Z,57.01
2022-09-28T08:10:14.261Z,56.49
2022-09-28T08:13:05.481Z,56.30
2022-09-28T08:15:42.735Z,56.85
2022-09-28T08:18:21.787Z,57.96
2022-09-28T08:21:11.432Z,57.15
2022-09-28T08:23:40.067Z,56.54
2022-09-28T08:26:12.075Z,54.95
2022-09-28T08:28:43.634Z,52.70
2022-09-28T08:31:31.130Z,50.15
2022-09-28T08:34:13.772Z,46.46
2022-09-28T08:37:02.134Z,45.45
2022-09-28T08:39:48.111Z,45.15
2022-09-28T08:42:41.379Z,44.47
2022-09-28T08:45:38.158Z,46.15
2022-09-28T08:49:13.515Z,47.28
2022-09-28T08:52:14.812Z,49.58
2022-09-28T08:55:30.272Z,50.61
2022-09-28T08:58:04.884Z,51.91
2022-09-28T09:00:49.395Z,53.01
2022-09-28T09:03:34.270Z,51.87
2022-09-28T09:06:36.158Z,46.47
2022-09-28T09:09:59.132Z,42.59
2022-09-28T09:12:36.925Z,41.46
2022-09-28T09:15:14.578Z,40.80
2022-09-28T09:18:22.555Z,37.84
2022-09-28T09:21:16.347Z,37.88
2022-09-28T09:24:04.637Z,40.90
2022-09-28T09:26:41.029Z,43.49
2022-09-28T09:29:31.670Z,45.15
2022-09-28T09:32:09.229Z,46.29
2022-09-28T09:34:46.156Z,47.27
2022-09-28T09:37:58.662Z,49.50
2022-09-28T09:41:16.123Z,49.30
2022-09-28T09:44:33.619Z,50.52
2022-09-28T09:47:43.090Z,51.98
2022-09-28T09:50:49.664Z,51.19
2022-09-28T09:53:20.991Z,50.61
2022-09-28T09:55:57.427Z,51.11
2022-09-28T09:58:42.579Z,49.15
2022-09-28T10:01:40.504Z,46.70
2022-09-28T10:04:33.938Z,44.81
2022-09-28T10:07:09.849Z,45.24
2022-09-28T10:09:47.829Z,45.94
2022-09-28T10:12:27.140Z,47.33
2022-09-28T10:14:56.091Z,47.19
2022-09-28T10:17:27.726Z,47.46
2022-09-28T10:20:16.160Z,48.10
2022-09-28T10:23:04.940Z,48.24
2022-09-28T10:25:37.512Z,48.33
2022-09-28T10:28:07.688Z,48.94
2022-09-28T10:30:42.077Z,48.27
2022-09-28T10:33:32.044Z,48.24
2022-09-28T10:36:02.012Z,49.01
2022-09-28T10:38:34.240Z,49.18
2022-09-28T10:41:12.206Z,48.60
2022-09-28T10:44:06.627Z,49.19
2022-09-28T10:47:00.979Z,50.26
2022-09-28T10:49:49.761Z,50.59
2022-09-28T10:52:41.708Z,50.98
2022-09-28T10:55:33.588Z,52.94
2022-09-28T10:58:17.460Z,53.01
2022-09-28T11:00:45.744Z,53.33
2022-09-28T11:03:28.038Z,51.94
2022-09-28T11:06:08.017Z,51.59
2022-09-28T11:08:42.181Z,51.59
2022-09-28T11:11:20.093Z,52.14
2022-09-28T11:14:03.764Z,51.80
2022-09-28T11:16:37.521Z,52.32
2022-09-28T11:19:22.137Z,52.50
2022-09-28T11:21:51.485Z,51.76
2022-09-28T11:24:26.125Z,51.39
2022-09-28T11:27:00.240Z,52.32
2022-09-28T11:29:44.301Z,53.20
2022-09-28T11:32:18.651Z,53.81
2022-09-28T11:35:07.396Z,53.50
2022-09-28T11:37:54.479Z,53.12
2022-09-28T11:41:11.144Z,53.02
2022-09-28T11:43:45.356Z,53.06
2022-09-28T11:46:35.125Z,52.62
2022-09-28T11:49:31.571Z,53.18
2022-09-28T11:52:08.605Z,51.85
2022-09-28T11:54:54.785Z,49.83
2022-09-28T11:57:28.652Z,50.90
2022-09-28T12:00:10.699Z,50.82
2022-09-28T12:03:09.483Z,48.87
2022-09-28T12:06:06.609Z,49.99
2022-09-28T12:08:41.668Z,49.68
2022-09-28T12:11:36.176Z,49.80
2022-09-28T12:14:40.854Z,49.49
2022-09-28T12:17:28.755Z,50.66
2022-09-28T12:20:14.199Z,49.91
2022-09-28T12:22:48.551Z,50.02
2022-09-28T12:25:21.229Z,50.28
2022-09-28T12:28:03.321Z,51.10
2022-09-28T12:30:37.426Z,51.58
2022-09-28T12:33:13.529Z,51.87
2022-09-28T12:35:56.818Z,52.44
2022-09-28T12:39:18.095Z,52.00
2022-09-28T12:41:58.804Z,52.59
2022-09-28T12:44:32.751Z,55.25
2022-09-28T12:47:09.683Z,57.59
2022-09-28T12:53:27.396Z,62.21
2022-09-28T12:56:11.695Z,63.47
2022-09-28T12:59:03.215Z,64.79
2022-09-28T13:01:52.797Z,66.23
2022-09-28T13:05:08.005Z,68.14
2022-09-28T13:07:59.523Z,67.56
2022-09-28T13:10:50.789Z,68.55
2022-09-28T13:13:48.258Z,67.84
2022-09-28T13:16:35.438Z,66.42
2022-09-28T13:19:16.920Z,65.79
2022-09-28T13:22:00.758Z,64.88
2022-09-28T13:24:35.184Z,63.54
2022-09-28T13:27:10.474Z,64.84
2022-09-28T13:29:40.834Z,63.77
2022-09-28T13:32:11.692Z,66.20
2022-09-28T13:34:40.544Z,66.38
2022-09-28T13:37:24.110Z,67.04
2022-09-28T13:39:59.482Z,67.34
2022-09-28T13:42:39.250Z,68.32
2022-09-28T13:45:22.465Z,68.08
2022-09-28T13:48:11.892Z,68.06
2022-09-28T13:51:14.840Z,67.93
2022-09-28T13:54:24.097Z,67.58
2022-09-28T13:57:13.609Z,66.55
2022-09-28T13:59:58.181Z,66.86
2022-09-28T14:03:13.289Z,66.68
2022-09-28T14:06:00.794Z,66.85
2022-09-28T14:08:38.477Z,66.13
2022-09-28T14:11:35.832Z,65.94
2022-09-28T14:14:13.878Z,66.52
2022-09-28T14:16:44.805Z,66.69
2022-09-28T14:19:33.988Z,66.27
2022-09-28T14:22:15.885Z,65.36
2022-09-28T14:25:02.578Z,64.71
2022-09-28T14:27:58.383Z,65.73
2022-09-28T14:30:35.462Z,65.84
2022-09-28T14:33:22.498Z,64.60
2022-09-28T14:35:56.324Z,64.05
2022-09-28T14:38:54.725Z,65.12
2022-09-28T14:41:41.964Z,65.31
2022-09-28T14:44:16.555Z,66.26
2022-09-28T14:46:46.355Z,64.90
2022-09-28T14:49:20.255Z,65.06
2022-09-28T14:51:48.074Z,66.29
2022-09-28T14:54:23.738Z,65.46
2022-09-28T14:56:57.075Z,64.79
2022-09-28T14:59:39.023Z,63.87
2022-09-28T15:02:20.563Z,64.31
2022-09-28T15:04:52.021Z,64.85
2022-09-28T15:07:43.468Z,65.66
2022-09-28T15:10:28.264Z,65.73
2022-09-28T15:12:57.236Z,66.73
2022-09-28T15:15:50.517Z,67.25
2022-09-28T15:18:36.572Z,68.25
2022-09-28T15:21:04.585Z,68.94
2022-09-28T15:23:44.161Z,69.03
2022-09-28T15:26:24.358Z,69.90
2022-09-28T15:28:52.250Z,70.92
2022-09-28T15:31:23.181Z,70.89
2022-09-28T15:34:09.975Z,71.19
2022-09-28T15:36:46.457Z,71.34
2022-09-28T15:39:32.070Z,71.96
2022-09-28T15:42:02.257Z,72.80
2022-09-28T15:44:36.587Z,72.85
2022-09-28T15:47:10.954Z,72.78
2022-09-28T15:49:43.421Z,73.39
2022-09-28T15:52:41.847Z,73.26
2022-09-28T15:55:29.388Z,74.30
2022-09-28T15:58:18.813Z,74.06
2022-09-28T16:00:48.689Z,74.36
2022-09-28T16:03:28.290Z,75.28
2022-09-28T16:05:58.786Z,76.15
2022-09-28T16:08:46.606Z,76.93
2022-09-28T16:11:14.305Z,77.77
2022-09-28T16:14:05.974Z,78.46
2022-09-28T16:16:46.636Z,78.86
2022-09-28T16:19:24.174Z,79.61
2022-09-28T16:21:53.571Z,80.29
2022-09-28T16:24:29.674Z,80.71
2022-09-28T16:27:03.722Z,81.43
2022-09-28T16:29:40.322Z,81.51
2022-09-28T16:32:26.597Z,81.82
2022-09-28T16:35:18.691Z,82.23
2022-09-28T16:37:48.794Z,82.74
2022-09-28T16:40:16.861Z,83.02
2022-09-28T16:42:49.063Z,83.63
2022-09-28T16:45:20.463Z,84.20
2022-09-28T16:47:52.909Z,84.79
2022-09-28T16:50:22.345Z,85.21
2022-09-28T16:53:19.586Z,85.09
2022-09-28T16:55:49.762Z,85.58
2022-09-28T16:58:18.636Z,86.04
2022-09-28T17:00:46.311Z,85.90
2022-09-28T17:03:20.981Z,86.22
2022-09-28T17:05:49.444Z,86.41
2022-09-28T17:08:19.449Z,86.29
2022-09-28T17:11:15.824Z,86.24
2022-09-28T17:13:43.379Z,86.47
2022-09-28T17:16:14.844Z,86.65
2022-09-28T17:18:42.855Z,86.55
2022-09-28T17:21:20.631Z,86.51
2022-09-28T17:23:50.050Z,86.49
2022-09-28T17:26:24.279Z,86.27
2022-09-28T17:28:53.071Z,85.85
2022-09-28T17:31:21.045Z,85.66
2022-09-28T17:33:48.795Z,85.19
2022-09-28T17:36:18.878Z,84.93
2022-09-28T17:38:47.826Z,85.22
2022-09-28T17:41:20.955Z,85.01
2022-09-28T17:43:50.103Z,85.01
2022-09-28T17:46:25.979Z,84.89
2022-09-28T17:48:54.750Z,85.21
2022-09-28T17:51:23.773Z,85.47
2022-09-28T17:53:52.657Z,86.20
2022-09-28T17:56:20.537Z,86.59
2022-09-28T17:58:48.410Z,87.00
2022-09-28T18:01:16.693Z,87.44
2022-09-28T18:03:44.734Z,87.85
2022-09-28T18:06:19.310Z,88.07
2022-09-28T18:08:47.363Z,88.45
2022-09-28T18:11:17.332Z,88.62
2022-09-28T18:13:46.138Z,89.12
2022-09-28T18:16:14.779Z,89.41
2022-09-28T18:18:42.648Z,90.04
2022-09-28T18:21:10.391Z,90.53
2022-09-28T18:23:39.680Z,90.64
2022-09-28T18:26:12.309Z,90.91
2022-09-28T18:28:40.716Z,91.08
2022-09-28T18:31:10.039Z,91.74
2022-09-28T18:33:39.332Z,92.44
2022-09-28T18:36:07.989Z,92.98
2022-09-28T18:38:36.864Z,93.54
2022-09-28T18:41:08.641Z,94.11
2022-09-28T18:43:37.121Z,94.68
2022-09-28T18:46:11.851Z,95.44
2022-09-28T18:48:43.955Z,96.20
2022-09-28T18:51:12.754Z,96.62
2022-09-28T18:53:41.220Z,96.74
2022-09-28T18:56:11.637Z,96.77
2022-09-28T18:58:41.402Z,96.85
2022-09-28T19:01:30.842Z,96.99
2022-09-28T19:04:04.756Z,97.13
2022-09-28T19:06:34.538Z,97.52
2022-09-28T19:09:02.632Z,97.68
2022-09-28T19:11:30.351Z,98.10
2022-09-28T19:13:58.229Z,98.55
2022-09-28T19:16:29.019Z,98.68
2022-09-28T19:19:02.842Z,99.22
2022-09-28T19:21:31.364Z,99.36
2022-09-28T19:24:03.577Z,99.55
2022-09-28T19:26:33.001Z,99.53
2022-09-28T19:29:02.823Z,99.34
2022-09-28T19:31:31.115Z,99.50
2022-09-28T19:33:59.187Z,99.48
2022-09-28T19:36:28.680Z,99.36
2022-09-28T19:38:58.613Z,99.09
2022-09-28T19:41:43.449Z,99.25
2022-09-28T19:44:19.474Z,99.25
2022-09-28T19:46:47.433Z,99.47
2022-09-28T19:49:19.711Z,99.46
2022-09-28T19:54:38.199Z,100.00
2022-09-28T19:57:08.657Z,100.00
2022-09-28T19:59:37.574Z,100.00
2022-09-28T20:02:07.469Z,100.00
2022-09-28T20:04:35.364Z,100.00
2022-09-28T20:07:04.323Z,100.00
2022-09-28T20:09:33.344Z,100.00
2022-09-28T20:12:01.584Z,100.00
2022-09-28T20:14:33.090Z,100.00
2022-09-28T20:17:04.438Z,100.00
2022-09-28T20:19:32.723Z,100.00
2022-09-28T20:22:02.874Z,100.00
2022-09-28T20:24:32.030Z,100.00
2022-09-28T20:27:01.330Z,100.00
2022-09-28T20:29:31.627Z,100.00
2022-09-28T20:32:00.438Z,100.00
2022-09-28T20:34:28.269Z,100.00
2022-09-28T20:36:56.170Z,100.00
2022-09-28T20:39:24.104Z,100.00
2022-09-28T20:41:51.968Z,100.00
2022-09-28T20:44:19.967Z,100.00
2022-09-28T20:46:51.287Z,100.00
2022-09-28T20:49:19.225Z,100.00
2022-09-28T20:51:47.076Z,100.00
2022-09-28T20:54:14.986Z,100.00
2022-09-28T20:56:42.862Z,100.00
2022-09-28T20:59:12.527Z,100.00
2022-09-28T21:01:40.889Z,100.00
2022-09-28T21:04:10.520Z,100.00
2022-09-28T21:06:40.977Z,100.00
2022-09-28T21:09:10.382Z,100.00
2022-09-28T21:11:39.493Z,100.00
2022-09-28T21:14:10.334Z,100.00
2022-09-28T21:16:38.881Z,100.00
2022-09-28T21:19:06.660Z,100.00
2022-09-28T21:21:34.638Z,100.00
2022-09-28T21:24:03.636Z,100.00
2022-09-28T21:26:32.110Z,100.00
2022-09-28T21:29:02.726Z,100.00
2022-09-28T21:31:45.619Z,100.00
2022-09-28T21:34:22.263Z,100.00
2022-09-28T21:36:51.345Z,100.00
2022-09-28T21:39:20.222Z,100.00
2022-09-28T21:41:48.294Z,100.00
2022-09-28T21:44:16.252Z,100.00
2022-09-28T21:46:44.118Z,100.00
2022-09-28T21:49:12.670Z,100.00
2022-09-28T21:51:40.652Z,100.00
2022-09-28T21:54:08.796Z,100.00
2022-09-28T21:56:36.516Z,100.00
2022-09-28T21:59:04.678Z,100.00
2022-09-28T22:01:32.535Z,100.00
2022-09-28T22:04:00.376Z,100.00
2022-09-28T22:06:28.456Z,100.00
2022-09-28T22:08:57.337Z,100.00
2022-09-28T22:11:27.068Z,100.00
2022-09-28T22:13:58.046Z,100.00
2022-09-28T22:16:30.550Z,100.00
2022-09-28T22:18:59.214Z,100.00
2022-09-28T22:21:29.767Z,100.00
2022-09-28T22:24:02.483Z,100.00
2022-09-28T22:26:32.350Z,100.00
2022-09-28T22:29:02.902Z,100.00
2022-09-28T22:31:33.547Z,100.00
2022-09-28T22:34:02.407Z,100.00
2022-09-28T22:36:30.508Z,100.00
2022-09-28T22:38:59.755Z,100.00
2022-09-28T22:41:28.402Z,100.00
2022-09-28T22:43:56.365Z,100.00
2022-09-28T22:46:26.991Z,100.00
2022-09-28T22:48:59.101Z,100.00
2022-09-28T22:51:30.094Z,100.00
2022-09-28T22:53:58.490Z,100.00
2022-09-28T22:56:26.432Z,100.00
2022-09-28T22:58:54.677Z,100.00
2022-09-28T23:01:26.081Z,100.00
2022-09-28T23:03:55.166Z,100.00
2022-09-28T23:06:26.204Z,100.00
2022-09-28T23:08:54.106Z,100.00
2022-09-28T23:11:21.983Z,100.00
2022-09-28T23:13:54.857Z,100.00
2022-09-28T23:16:25.507Z,100.00
2022-09-28T23:18:55.213Z,100.00
2022-09-28T23:21:25.418Z,100.00
2022-09-28T23:23:58.897Z,100.00
2022-09-28T23:26:29.817Z,100.00
2022-09-28T23:28:58.308Z,100.00
2022-09-28T23:31:28.844Z,100.00
2022-09-28T23:34:05.509Z,100.00
2022-09-28T23:36:34.197Z,100.00
2022-09-28T23:39:02.267Z,100.00
2022-09-28T23:41:30.432Z,100.00
2022-09-28T23:43:58.315Z,100.00
2022-09-28T23:46:26.316Z,100.00
2022-09-28T23:48:54.148Z,100.00
2022-09-28T23:51:22.221Z,100.00
2022-09-28T23:53:50.595Z,100.00
2022-09-28T23:56:18.309Z,100.00
2022-09-28T23:58:45.983Z,100.00
